Little Bear Creek Observed Data For Previous 48 Hours

Caption
Day and Hour Reservoir Elevation (behind dam)* Tailwater Elevation (below dam)* Average Hourly Discharge*
2/21/2018 1 AM CST 611.23 544.76 85
2/21/2018 2 AM CST 611.22 544.76 85
2/21/2018 3 AM CST 611.24 544.76 85
2/21/2018 4 AM CST 611.23 544.76 85
2/21/2018 5 AM CST 611.23 544.76 85
2/21/2018 6 AM CST 611.24 544.76 85
2/21/2018 7 AM CST 611.25 544.76 85
2/21/2018 8 AM CST 611.25 544.76 85
2/21/2018 9 AM CST 611.26 544.76 85
2/21/2018 10 AM CST 611.26 544.76 85
2/21/2018 11 AM CST 611.26 544.76 85
2/21/2018 12 PM CST 611.26 544.76 85
2/21/2018 1 PM CST 611.27 544.76 85
2/21/2018 2 PM CST 611.25 544.77 85
2/21/2018 3 PM CST 611.26 544.77 85
2/21/2018 4 PM CST 611.28 544.76 85
2/21/2018 5 PM CST 611.28 544.77 85
2/21/2018 6 PM CST 611.28 544.77 85
2/21/2018 7 PM CST 611.28 544.76 85
2/21/2018 8 PM CST 611.29 544.77 85
2/21/2018 9 PM CST 611.29 544.76 85
2/21/2018 10 PM CST 611.31 544.76 85
2/21/2018 11 PM CST 611.31 544.76 85
2/22/2018 12 AM CST 611.32 544.76 85
2/22/2018 1 AM CST 611.32 544.77 85
2/22/2018 2 AM CST 611.32 544.76 85
2/22/2018 3 AM CST 611.33 544.76 85
2/22/2018 4 AM CST 611.33 544.77 85
2/22/2018 5 AM CST 611.41 544.83 85
2/22/2018 6 AM CST 611.56 545.08 85
2/22/2018 7 AM CST 611.86 545.44 85
2/22/2018 8 AM CST 612.12 545.64 85
2/22/2018 9 AM CST 612.33 545.56 85
2/22/2018 10 AM CST 612.56 546.22 85
2/22/2018 11 AM CST 612.73 546.85 290
2/22/2018 12 PM CST 612.85 546.44 290
2/22/2018 1 PM CST 612.96 546.20 290
2/22/2018 2 PM CST 613.05 546.07 291
2/22/2018 3 PM CST 613.12 545.99 295
2/22/2018 4 PM CST 613.19 545.95 295
2/22/2018 5 PM CST 613.25 545.94 295
2/22/2018 6 PM CST 613.29 545.91 295
2/22/2018 7 PM CST 613.34 545.86 295
2/22/2018 8 PM CST 613.38 545.84 295
2/22/2018 9 PM CST 613.42 545.82 295
2/22/2018 10 PM CST 613.45 545.84 295
2/22/2018 11 PM CST 613.48 545.81 295
2/23/2018 12 AM CST 613.50 545.82 295
2/23/2018 1 AM CST 613.53 545.78 295
2/23/2018 2 AM CST 613.54 545.79 295
2/23/2018 3 AM CST 613.57 545.80 295
2/23/2018 4 AM CST 613.59 545.79 295
2/23/2018 5 AM CST 613.60 545.78 295
2/23/2018 6 AM CST 613.61 545.77 295
2/23/2018 7 AM CST 613.63 545.77 295
2/23/2018 8 AM CST 613.64 545.81 295
2/23/2018 9 AM CST 613.65 545.78 295

Elevations are in feet above sea level. Discharges are in cubic feet per second and are reported at the end of the hour.